Ocean Tomo — 3FID9 — position and weather

sailwx.info

Track history (hours):
 
Tides and Currents Weather Stations Pressure Air Temp Water Temp Dewpoint Dewpoint Depression Visibility Wind Speed Wind Dir Waves Ship Positions

Ocean Tomo

Last reported at 2015-Aug-30 15:22 UTC. Time now 2015-Aug-30 20:01 UTC.
Position N 34°01' E 130°52'.

Length 190 m; draft 6.1 m.

Type: Ship. MMSI: 372951000.

Date/timePositionNaut miles runAvg speedWind from/ knotsBaromVisibWave heightAir tempDewpointWater temp
2015-Aug-30 15:22N 34°01' E 130°52'4 5.2
2015-Aug-30 14:33N 34°04' E 130°48'19 9.5
2015-Aug-30 12:33N 34°03' E 130°25'  
2015-Aug-23 13:29N 30°59' E 122°31'1213.4
2015-Aug-23 12:33N 31°02' E 122°16'1312.7
2015-Aug-23 11:33N 31°05' E 122°02'1312.6
2015-Aug-23 10:33N 31°12' E 121°50'1313.0
2015-Aug-23 09:33N 31°21' E 121°39'1212.0
2015-Aug-23 08:33N 31°28' E 121°28'8 7.5
2015-Aug-23 07:34N 31°30' E 121°36'9 8.6
2015-Aug-23 06:34N 31°35' E 121°28'0 0.1
2015-Aug-23 05:32N 31°35' E 121°28'0 0.0
2015-Aug-23 04:32N 31°35' E 121°28'0 0.1
2015-Aug-23 03:32N 31°35' E 121°28'0 0.0
2015-Aug-23 02:32N 31°35' E 121°28'0 0.0
2015-Aug-23 01:32N 31°35' E 121°28'1 0.9
2015-Aug-23 00:33N 31°34' E 121°29'2 1.6
2015-Aug-22 23:31N 31°35' E 121°27'0 0.0
2015-Aug-22 22:31N 31°35' E 121°27'0 0.0
2015-Aug-22 21:31N 31°35' E 121°27'0 0.0
2015-Aug-22 20:31N 31°35' E 121°27'0 0.0
2015-Aug-22 19:31N 31°35' E 121°27'0 0.0
2015-Aug-22 18:31N 31°35' E 121°27'0 0.0
2015-Aug-22 17:31N 31°35' E 121°27'0 0.0
2015-Aug-22 16:31N 31°35' E 121°27'0 0.0
2015-Aug-22 15:31N 31°35' E 121°27'0 0.0
2015-Aug-22 14:31N 31°35' E 121°27'0 0.0
2015-Aug-22 13:31N 31°35' E 121°27'0 0.0
2015-Aug-22 12:31N 31°35' E 121°27'0 0.0
2015-Aug-22 11:31N 31°35' E 121°27'0 0.0
2015-Aug-22 10:31N 31°35' E 121°27'0 0.0
2015-Aug-22 09:31N 31°35' E 121°27'0 0.0
2015-Aug-22 08:31N 31°35' E 121°27'0 0.0
2015-Aug-22 07:28N 31°35' E 121°27'0 0.0
2015-Aug-22 06:31N 31°35' E 121°27'0 0.0
2015-Aug-22 05:31N 31°35' E 121°27'0 0.0
2015-Aug-22 04:31N 31°35' E 121°27'0 0.0
2015-Aug-22 03:31N 31°35' E 121°27'0 0.0
2015-Aug-22 02:31N 31°35' E 121°27'0 0.0
2015-Aug-22 01:31N 31°35' E 121°27'0 0.0
2015-Aug-21 09:31N 31°35' E 121°27'0 0.0
2015-Aug-21 08:34N 31°35' E 121°27'0 0.0
2015-Aug-21 07:30N 31°35' E 121°27'0 0.0
2015-Aug-21 06:31N 31°35' E 121°27'0 0.0
2015-Aug-21 05:33N 31°35' E 121°27'0 0.0
2015-Aug-21 04:33N 31°35' E 121°27'0 0.0
2015-Aug-21 03:33N 31°35' E 121°27'0 0.0
2015-Aug-21 02:31N 31°35' E 121°27'0 0.0
2015-Aug-21 01:33N 31°35' E 121°27'0 0.0
2015-Aug-21 00:33N 31°35' E 121°27'  
Track history (hours):
 
Tides and Currents Weather Stations Pressure Air Temp Water Temp Dewpoint Dewpoint Depression Visibility Wind Speed Wind Dir Waves Ship Positions

Ocean Tomo

Last reported at 2015-Aug-30 15:22 UTC. Time now 2015-Aug-30 20:01 UTC.
Position N 34°01' E 130°52'.

Length 190 m; draft 6.1 m.

Type: Ship. MMSI: 372951000.

Date/timePositionNaut miles runAvg speedWind from/ knotsBaromVisibWave heightAir tempDewpointWater temp
2015-Aug-30 15:22N 34°01' E 130°52'4 5.2
2015-Aug-30 14:33N 34°04' E 130°48'19 9.5
2015-Aug-30 12:33N 34°03' E 130°25'  
2015-Aug-23 13:29N 30°59' E 122°31'1213.4
2015-Aug-23 12:33N 31°02' E 122°16'1312.7
2015-Aug-23 11:33N 31°05' E 122°02'1312.6
2015-Aug-23 10:33N 31°12' E 121°50'1313.0
2015-Aug-23 09:33N 31°21' E 121°39'1212.0
2015-Aug-23 08:33N 31°28' E 121°28'8 7.5
2015-Aug-23 07:34N 31°30' E 121°36'9 8.6
2015-Aug-23 06:34N 31°35' E 121°28'0 0.1
2015-Aug-23 05:32N 31°35' E 121°28'0 0.0
2015-Aug-23 04:32N 31°35' E 121°28'0 0.1
2015-Aug-23 03:32N 31°35' E 121°28'0 0.0
2015-Aug-23 02:32N 31°35' E 121°28'0 0.0
2015-Aug-23 01:32N 31°35' E 121°28'1 0.9
2015-Aug-23 00:33N 31°34' E 121°29'2 1.6
2015-Aug-22 23:31N 31°35' E 121°27'0 0.0
2015-Aug-22 22:31N 31°35' E 121°27'0 0.0
2015-Aug-22 21:31N 31°35' E 121°27'0 0.0
2015-Aug-22 20:31N 31°35' E 121°27'0 0.0
2015-Aug-22 19:31N 31°35' E 121°27'0 0.0
2015-Aug-22 18:31N 31°35' E 121°27'0 0.0
2015-Aug-22 17:31N 31°35' E 121°27'0 0.0
2015-Aug-22 16:31N 31°35' E 121°27'0 0.0
2015-Aug-22 15:31N 31°35' E 121°27'0 0.0
2015-Aug-22 14:31N 31°35' E 121°27'0 0.0
2015-Aug-22 13:31N 31°35' E 121°27'0 0.0
2015-Aug-22 12:31N 31°35' E 121°27'0 0.0
2015-Aug-22 11:31N 31°35' E 121°27'0 0.0
2015-Aug-22 10:31N 31°35' E 121°27'0 0.0
2015-Aug-22 09:31N 31°35' E 121°27'0 0.0
2015-Aug-22 08:31N 31°35' E 121°27'0 0.0
2015-Aug-22 07:28N 31°35' E 121°27'0 0.0
2015-Aug-22 06:31N 31°35' E 121°27'0 0.0
2015-Aug-22 05:31N 31°35' E 121°27'0 0.0
2015-Aug-22 04:31N 31°35' E 121°27'0 0.0
2015-Aug-22 03:31N 31°35' E 121°27'0 0.0
2015-Aug-22 02:31N 31°35' E 121°27'0 0.0
2015-Aug-22 01:31N 31°35' E 121°27'0 0.0
2015-Aug-21 09:31N 31°35' E 121°27'0 0.0
2015-Aug-21 08:34N 31°35' E 121°27'0 0.0
2015-Aug-21 07:30N 31°35' E 121°27'0 0.0
2015-Aug-21 06:31N 31°35' E 121°27'0 0.0
2015-Aug-21 05:33N 31°35' E 121°27'0 0.0
2015-Aug-21 04:33N 31°35' E 121°27'0 0.0
2015-Aug-21 03:33N 31°35' E 121°27'0 0.0
2015-Aug-21 02:31N 31°35' E 121°27'0 0.0
2015-Aug-21 01:33N 31°35' E 121°27'0 0.0
2015-Aug-21 00:33N 31°35' E 121°27'  

Dump ship's entire track history